createdAt,value
2023-03-23T03:41:00.000Z,31.7
2023-03-23T03:42:00.000Z,32.1
2023-03-23T03:43:00.000Z,33.2
2023-03-23T03:44:00.000Z,33.6
2023-03-23T03:45:00.000Z,34.7
2023-03-23T03:46:00.000Z,35.6
2023-03-23T03:47:00.000Z,36.5
2023-03-23T03:48:00.000Z,37.6
2023-03-23T03:49:00.000Z,38.1
2023-03-23T03:50:00.000Z,38.5
2023-03-23T03:51:00.000Z,37.9
2023-03-23T03:52:00.000Z,37.3
2023-03-23T03:53:00.000Z,36.7
2023-03-23T03:54:00.000Z,36.4
2023-03-23T03:55:00.000Z,35.7
2023-03-23T03:56:00.000Z,35.6
2023-03-23T03:57:00.000Z,35.5
2023-03-23T03:58:00.000Z,34.4
2023-03-23T03:59:00.000Z,32.6
2023-03-23T04:00:00.000Z,32.6
2023-03-23T04:01:00.000Z,33.8
2023-03-23T04:02:00.000Z,35.6
2023-03-23T04:03:00.000Z,36.4
2023-03-23T04:04:00.000Z,37.2
2023-03-23T04:05:00.000Z,37.6
2023-03-23T04:06:00.000Z,38.8
2023-03-23T04:07:00.000Z,40.0
2023-03-23T04:08:00.000Z,40.5
2023-03-23T04:09:00.000Z,40.1
2023-03-23T04:10:00.000Z,40.1
2023-03-23T04:11:00.000Z,40.7
2023-03-23T04:12:00.000Z,40.2
2023-03-23T04:13:00.000Z,39.2
2023-03-23T04:14:00.000Z,38.0
2023-03-23T04:15:00.000Z,37.4
2023-03-23T04:16:00.000Z,37.0
2023-03-23T04:17:00.000Z,38.1
2023-03-23T04:18:00.000Z,37.2
2023-03-23T04:19:00.000Z,36.5
2023-03-23T04:20:00.000Z,35.6
2023-03-23T04:21:00.000Z,32.9
2023-03-23T04:22:00.000Z,32.7
2023-03-23T04:23:00.000Z,30.5
2023-03-23T04:24:00.000Z,29.6
2023-03-23T07:41:00.000Z,46.3
2023-03-23T07:42:00.000Z,46.7
2023-03-23T07:43:00.000Z,49.6
2023-03-23T07:44:00.000Z,52.4
2023-03-23T07:45:00.000Z,54.5
2023-03-23T07:46:00.000Z,54.8
2023-03-23T07:47:00.000Z,54.6
2023-03-23T07:48:00.000Z,55.8
2023-03-23T07:49:00.000Z,57.6
2023-03-23T07:50:00.000Z,57.6
2023-03-23T07:51:00.000Z,57.6
2023-03-23T07:52:00.000Z,58.2
2023-03-23T07:53:00.000Z,61.1
2023-03-23T07:54:00.000Z,63.3
2023-03-23T07:55:00.000Z,65.0
2023-03-23T07:56:00.000Z,66.6
2023-03-23T07:57:00.000Z,67.7
2023-03-23T07:58:00.000Z,68.8
2023-03-23T07:59:00.000Z,69.2
2023-03-23T08:00:00.000Z,69.7
2023-03-23T08:01:00.000Z,69.3
2023-03-23T08:02:00.000Z,70.1
2023-03-23T08:03:00.000Z,70.3
2023-03-23T08:04:00.000Z,75.7
2023-03-23T08:05:00.000Z,79.0
2023-03-23T08:06:00.000Z,83.0
2023-03-23T08:07:00.000Z,85.5
2023-03-23T08:08:00.000Z,87.8
2023-03-23T08:09:00.000Z,87.9
2023-03-23T08:10:00.000Z,88.7
2023-03-23T08:11:00.000Z,89.2
2023-03-23T08:12:00.000Z,90.0
2023-03-23T08:13:00.000Z,90.3
2023-03-23T08:14:00.000Z,90.8
2023-03-23T08:15:00.000Z,90.7
2023-03-23T08:16:00.000Z,91.5
2023-03-23T08:17:00.000Z,91.3
2023-03-23T08:18:00.000Z,91.5
2023-03-23T08:19:00.000Z,92.2
2023-03-23T08:20:00.000Z,92.2
2023-03-23T08:21:00.000Z,93.5
2023-03-23T08:22:00.000Z,93.5
2023-03-23T08:23:00.000Z,93.6
2023-03-23T08:24:00.000Z,93.9
2023-03-23T08:25:00.000Z,94.9
2023-03-23T08:26:00.000Z,97.1
2023-03-23T08:27:00.000Z,98.5
2023-03-23T08:28:00.000Z,100.5
2023-03-23T08:29:00.000Z,101.1
2023-03-23T08:30:00.000Z,101.5
2023-03-23T08:31:00.000Z,101.1
2023-03-23T08:32:00.000Z,102.0
2023-03-23T08:33:00.000Z,102.4
2023-03-23T08:34:00.000Z,103.8
2023-03-23T08:35:00.000Z,105.1
2023-03-23T08:36:00.000Z,105.7
2023-03-23T08:37:00.000Z,106.1
2023-03-23T08:38:00.000Z,106.2
2023-03-23T08:39:00.000Z,109.9
2023-03-23T08:40:00.000Z,113.1
2023-03-23T08:41:00.000Z,116.9
2023-03-23T08:42:00.000Z,117.9
2023-03-23T08:43:00.000Z,117.8
2023-03-23T08:44:00.000Z,118.7
2023-03-23T08:45:00.000Z,120.5
2023-03-23T08:46:00.000Z,120.7
2023-03-23T08:47:00.000Z,120.9
2023-03-23T08:48:00.000Z,121.2
2023-03-23T08:49:00.000Z,120.2
2023-03-23T08:50:00.000Z,121.9
2023-03-23T08:51:00.000Z,120.8
2023-03-23T08:52:00.000Z,121.4
2023-03-23T08:53:00.000Z,122.5
2023-03-23T08:54:00.000Z,122.9
2023-03-23T08:55:00.000Z,123.2
2023-03-23T08:56:00.000Z,121.9
2023-03-23T08:57:00.000Z,122.0
2023-03-23T08:58:00.000Z,124.3
2023-03-23T08:59:00.000Z,124.3
2023-03-23T09:00:00.000Z,125.6
2023-03-23T09:01:00.000Z,120.6
2023-03-23T09:02:00.000Z,120.0
2023-03-23T09:03:00.000Z,120.8
2023-03-23T09:04:00.000Z,124.6
2023-03-23T09:05:00.000Z,126.6
2023-03-23T09:07:00.000Z,134.4
2023-03-23T09:12:00.000Z,138.9
2023-03-23T09:13:00.000Z,141.2
2023-03-23T09:14:00.000Z,140.9
2023-03-23T09:15:00.000Z,140.7
2023-03-23T09:16:00.000Z,137.9
2023-03-23T09:17:00.000Z,138.1
2023-03-23T09:19:00.000Z,138.1
2023-03-23T09:20:00.000Z,138.1
2023-03-23T09:21:00.000Z,138.1
2023-03-23T09:22:00.000Z,138.1
2023-03-23T09:23:00.000Z,138.1
2023-03-23T09:24:00.000Z,138.1
2023-03-23T09:25:00.000Z,138.1
2023-03-23T09:26:00.000Z,138.1
2023-03-23T09:27:00.000Z,138.1
2023-03-23T09:28:00.000Z,138.1
2023-03-23T09:29:00.000Z,138.1
2023-03-23T09:30:00.000Z,138.1
2023-03-23T09:31:00.000Z,138.1
2023-03-23T09:32:00.000Z,138.1
2023-03-23T09:33:00.000Z,138.1
2023-03-23T09:34:00.000Z,138.1
2023-03-23T09:35:00.000Z,138.1
2023-03-23T09:36:00.000Z,138.1
2023-03-23T09:37:00.000Z,138.1
2023-03-23T09:38:00.000Z,138.1
2023-03-23T09:39:00.000Z,138.1
2023-03-23T09:40:00.000Z,138.1
2023-03-23T09:41:00.000Z,138.1
2023-03-23T09:42:00.000Z,138.1
2023-03-23T09:43:00.000Z,138.1
2023-03-23T09:44:00.000Z,138.1
2023-03-23T09:45:00.000Z,138.1
2023-03-23T09:46:00.000Z,138.1
2023-03-23T09:47:00.000Z,138.1
2023-03-23T09:48:00.000Z,138.1
2023-03-23T09:49:00.000Z,138.1
2023-03-23T09:50:00.000Z,138.1
2023-03-23T09:51:00.000Z,138.1
2023-03-23T09:52:00.000Z,138.1
2023-03-23T09:53:00.000Z,138.1
2023-03-23T09:54:00.000Z,138.1
2023-03-23T09:55:00.000Z,138.1
2023-03-23T09:56:00.000Z,138.1
2023-03-23T09:57:00.000Z,138.1
2023-03-23T09:58:00.000Z,138.1
2023-03-23T09:59:00.000Z,138.1
2023-03-23T10:00:00.000Z,138.1
2023-03-23T10:01:00.000Z,138.1
2023-03-23T10:02:00.000Z,138.1
2023-03-23T10:03:00.000Z,138.1
2023-03-23T10:04:00.000Z,138.1
2023-03-23T10:05:00.000Z,138.1
2023-03-23T10:06:00.000Z,138.1
2023-03-23T10:07:00.000Z,138.1
2023-03-23T10:08:00.000Z,138.1
2023-03-23T10:09:00.000Z,138.1
2023-03-23T10:10:00.000Z,138.1
2023-03-23T10:11:00.000Z,138.1
2023-03-23T10:12:00.000Z,138.1
2023-03-23T10:13:00.000Z,138.1
2023-03-23T10:14:00.000Z,138.1
2023-03-23T10:15:00.000Z,138.1
2023-03-23T10:16:00.000Z,138.1
2023-03-23T10:17:00.000Z,138.1
2023-03-23T10:18:00.000Z,138.1
2023-03-23T10:19:00.000Z,138.1
2023-03-23T10:20:00.000Z,138.1
2023-03-23T10:21:00.000Z,138.1
2023-03-23T10:22:00.000Z,138.1
2023-03-23T10:23:00.000Z,138.1
2023-03-23T10:33:00.000Z,198.2
2023-03-23T10:34:00.000Z,198.3
2023-03-23T10:35:00.000Z,197.1
2023-03-23T10:36:00.000Z,196.6
2023-03-23T10:37:00.000Z,195.2
2023-03-23T10:38:00.000Z,195.2
2023-03-23T10:39:00.000Z,196.5
2023-03-23T10:40:00.000Z,197.8
2023-03-23T10:41:00.000Z,197.1
2023-03-23T10:42:00.000Z,197.5
2023-03-23T10:43:00.000Z,195.9
2023-03-23T10:44:00.000Z,197.8
2023-03-23T10:45:00.000Z,198.9
2023-03-23T10:48:00.000Z,197.9
2023-03-23T10:49:00.000Z,197.7
2023-03-23T10:50:00.000Z,199.6
2023-03-23T10:51:00.000Z,198.7
2023-03-23T10:52:00.000Z,198.5
2023-03-23T10:53:00.000Z,199.7
2023-03-23T10:56:00.000Z,201.0
2023-03-23T10:57:00.000Z,199.3
2023-03-23T10:58:00.000Z,200.9
2023-03-23T10:59:00.000Z,200.8
2023-03-23T11:00:00.000Z,203.9
2023-03-23T11:01:00.000Z,204.2
2023-03-23T11:02:00.000Z,205.7
2023-03-23T11:03:00.000Z,204.2
2023-03-23T11:04:00.000Z,204.3
2023-03-23T11:05:00.000Z,203.6
2023-03-23T11:06:00.000Z,204.8
2023-03-23T11:07:00.000Z,203.5
2023-03-23T11:08:00.000Z,203.0
2023-03-23T11:09:00.000Z,202.9
2023-03-23T11:10:00.000Z,202.4
2023-03-23T11:11:00.000Z,202.0
2023-03-23T11:12:00.000Z,200.9
2023-03-23T11:13:00.000Z,203.3
2023-03-23T11:14:00.000Z,203.0
2023-03-23T11:15:00.000Z,203.2
2023-03-23T11:16:00.000Z,203.0
2023-03-23T11:17:00.000Z,203.2
2023-03-23T11:18:00.000Z,204.5
2023-03-23T11:19:00.000Z,204.4
2023-03-23T11:20:00.000Z,203.4
2023-03-23T11:21:00.000Z,201.5
2023-03-23T11:22:00.000Z,199.7
2023-03-23T11:23:00.000Z,201.3
2023-03-23T11:24:00.000Z,203.1
2023-03-23T11:25:00.000Z,204.6
2023-03-23T11:26:00.000Z,203.5
2023-03-23T11:27:00.000Z,201.9
2023-03-23T11:28:00.000Z,201.9
2023-03-23T11:29:00.000Z,199.8
2023-03-23T11:30:00.000Z,197.6
2023-03-23T11:31:00.000Z,193.0
2023-03-23T11:32:00.000Z,195.1
2023-03-23T11:33:00.000Z,193.9
2023-03-23T11:34:00.000Z,191.5
2023-03-23T11:35:00.000Z,188.3
2023-03-23T11:36:00.000Z,185.0
2023-03-23T11:37:00.000Z,168.3
2023-03-23T11:38:00.000Z,175.1
2023-03-23T11:39:00.000Z,183.8
2023-03-23T11:40:00.000Z,188.6
2023-03-23T11:41:00.000Z,190.9
2023-03-23T11:42:00.000Z,193.9
2023-03-23T11:43:00.000Z,194.9
2023-03-23T11:44:00.000Z,194.8
2023-03-23T11:45:00.000Z,190.5
2023-03-23T11:46:00.000Z,192.4
2023-03-23T11:47:00.000Z,191.2
2023-03-23T11:48:00.000Z,192.2
2023-03-23T11:49:00.000Z,192.0
2023-03-23T11:50:00.000Z,190.3
2023-03-23T11:51:00.000Z,190.3
2023-03-23T11:52:00.000Z,188.6
2023-03-23T11:53:00.000Z,188.4
2023-03-23T11:54:00.000Z,186.8
2023-03-23T11:55:00.000Z,187.2
2023-03-23T11:56:00.000Z,189.3
2023-03-23T11:57:00.000Z,189.3
2023-03-23T11:58:00.000Z,187.9
2023-03-23T11:59:00.000Z,187.7
2023-03-23T12:00:00.000Z,187.8
2023-03-23T12:01:00.000Z,183.8
2023-03-23T12:02:00.000Z,182.5
2023-03-23T12:03:00.000Z,184.1
2023-03-23T12:04:00.000Z,186.4
2023-03-23T12:05:00.000Z,188.2
2023-03-23T12:06:00.000Z,187.2
2023-03-23T12:07:00.000Z,185.2
2023-03-23T12:08:00.000Z,184.2
2023-03-23T12:09:00.000Z,184.7
2023-03-23T12:10:00.000Z,187.3
2023-03-23T12:11:00.000Z,190.0
2023-03-23T12:12:00.000Z,189.7
2023-03-23T12:13:00.000Z,188.2
2023-03-23T12:14:00.000Z,186.4
2023-03-23T12:15:00.000Z,182.3
2023-03-23T12:16:00.000Z,178.9
2023-03-23T12:17:00.000Z,174.8
2023-03-23T12:18:00.000Z,172.4
2023-03-23T12:19:00.000Z,177.9
2023-03-23T12:20:00.000Z,185.5
2023-03-23T12:21:00.000Z,187.0
2023-03-23T12:22:00.000Z,186.1
2023-03-23T12:23:00.000Z,183.5
2023-03-23T12:24:00.000Z,182.7
2023-03-23T12:25:00.000Z,184.1
2023-03-23T12:26:00.000Z,185.2
2023-03-23T12:27:00.000Z,182.5
2023-03-23T12:28:00.000Z,182.6
2023-03-23T12:29:00.000Z,180.4
2023-03-23T12:30:00.000Z,181.1
2023-03-23T12:31:00.000Z,181.2
2023-03-23T12:32:00.000Z,182.8
2023-03-23T12:33:00.000Z,184.5
2023-03-23T12:34:00.000Z,183.6
2023-03-23T12:35:00.000Z,183.4
2023-03-23T12:36:00.000Z,183.1
2023-03-23T12:37:00.000Z,183.4
2023-03-23T12:38:00.000Z,182.2
2023-03-23T12:39:00.000Z,180.9
2023-03-23T12:40:00.000Z,180.0
2023-03-23T12:41:00.000Z,180.7
2023-03-23T12:42:00.000Z,180.3
2023-03-23T12:43:00.000Z,179.8
2023-03-23T12:44:00.000Z,179.2
2023-03-23T12:45:00.000Z,181.2
2023-03-23T12:46:00.000Z,182.5
2023-03-23T12:47:00.000Z,181.9
2023-03-23T12:48:00.000Z,181.9
2023-03-23T12:49:00.000Z,181.5
2023-03-23T12:50:00.000Z,181.0
2023-03-23T12:51:00.000Z,179.3
2023-03-23T12:52:00.000Z,176.5
2023-03-23T12:53:00.000Z,176.1
2023-03-23T12:54:00.000Z,176.3
2023-03-23T12:55:00.000Z,177.8
2023-03-23T12:56:00.000Z,177.2
2023-03-23T12:57:00.000Z,176.7
2023-03-23T12:58:00.000Z,177.6
2023-03-23T12:59:00.000Z,178.8
2023-03-23T13:00:00.000Z,177.1
2023-03-23T13:01:00.000Z,176.1
2023-03-23T13:02:00.000Z,174.8
2023-03-23T13:03:00.000Z,174.3
2023-03-23T13:04:00.000Z,174.1
2023-03-23T13:05:00.000Z,172.6
2023-03-23T13:06:00.000Z,173.9
2023-03-23T13:07:00.000Z,173.4
2023-03-23T13:08:00.000Z,172.9
2023-03-23T13:09:00.000Z,172.5
2023-03-23T13:10:00.000Z,172.8
2023-03-23T13:11:00.000Z,173.0
2023-03-23T13:12:00.000Z,174.9
2023-03-23T13:13:00.000Z,174.6
2023-03-23T13:14:00.000Z,173.9
2023-03-23T13:15:00.000Z,174.0
2023-03-23T13:16:00.000Z,172.8
2023-03-23T13:17:00.000Z,173.6
2023-03-23T13:18:00.000Z,171.3
2023-03-23T13:19:00.000Z,170.7
2023-03-23T13:20:00.000Z,168.3
2023-03-23T13:21:00.000Z,166.1
2023-03-23T13:22:00.000Z,165.4
2023-03-23T13:23:00.000Z,166.0
2023-03-23T13:24:00.000Z,167.2
2023-03-23T13:25:00.000Z,169.6
2023-03-23T13:26:00.000Z,170.2
2023-03-23T13:27:00.000Z,170.0
2023-03-23T13:28:00.000Z,168.5
2023-03-23T13:29:00.000Z,167.4
2023-03-23T13:30:00.000Z,168.1
2023-03-23T13:31:00.000Z,167.4
2023-03-23T13:32:00.000Z,167.6
2023-03-23T13:33:00.000Z,166.1
2023-03-23T13:34:00.000Z,166.0
2023-03-23T13:35:00.000Z,167.3
2023-03-23T13:36:00.000Z,167.8
2023-03-23T13:37:00.000Z,168.2
2023-03-23T13:38:00.000Z,167.3
2023-03-23T13:39:00.000Z,165.2
2023-03-23T13:40:00.000Z,163.7
2023-03-23T13:41:00.000Z,162.3
2023-03-23T13:42:00.000Z,163.2
2023-03-23T13:43:00.000Z,164.8
2023-03-23T13:44:00.000Z,163.6
2023-03-23T13:45:00.000Z,162.6
2023-03-23T13:46:00.000Z,162.7
2023-03-23T13:47:00.000Z,161.9
2023-03-23T13:48:00.000Z,160.6
2023-03-23T13:49:00.000Z,158.1
2023-03-23T13:50:00.000Z,157.0
2023-03-23T13:51:00.000Z,158.0
2023-03-23T13:52:00.000Z,158.5
2023-03-23T13:53:00.000Z,159.0
2023-03-23T13:54:00.000Z,159.2
2023-03-23T13:55:00.000Z,158.3
2023-03-23T13:56:00.000Z,156.9
2023-03-23T13:57:00.000Z,156.3
2023-03-23T13:58:00.000Z,158.4
2023-03-23T13:59:00.000Z,159.1
2023-03-23T14:00:00.000Z,161.5
2023-03-23T14:01:00.000Z,160.5
2023-03-23T14:02:00.000Z,159.8
2023-03-23T14:03:00.000Z,159.6
2023-03-23T14:04:00.000Z,157.9
2023-03-23T14:05:00.000Z,157.5
2023-03-23T14:06:00.000Z,156.1
2023-03-23T14:07:00.000Z,156.2
2023-03-23T14:08:00.000Z,156.8
2023-03-23T14:09:00.000Z,155.1
2023-03-23T14:10:00.000Z,154.0
2023-03-23T14:11:00.000Z,152.4
2023-03-23T14:12:00.000Z,152.9
2023-03-23T14:13:00.000Z,152.9
2023-03-23T14:14:00.000Z,152.9
2023-03-23T14:15:00.000Z,152.9
2023-03-23T14:16:00.000Z,153.5
2023-03-23T14:17:00.000Z,152.5
2023-03-23T14:18:00.000Z,151.9
2023-03-23T14:19:00.000Z,149.7
2023-03-23T14:20:00.000Z,151.7
2023-03-23T14:21:00.000Z,150.6
2023-03-23T14:22:00.000Z,150.7
2023-03-23T14:23:00.000Z,150.1
2023-03-23T14:24:00.000Z,149.8
2023-03-23T14:25:00.000Z,151.1
2023-03-23T14:26:00.000Z,150.3
2023-03-23T14:27:00.000Z,151.3
2023-03-23T14:28:00.000Z,150.6
2023-03-23T14:29:00.000Z,152.0
2023-03-23T14:30:00.000Z,153.8
2023-03-23T14:31:00.000Z,151.7
2023-03-23T14:32:00.000Z,149.3
2023-03-23T14:33:00.000Z,147.5
2023-03-23T14:34:00.000Z,147.7
2023-03-23T14:35:00.000Z,147.0
2023-03-23T14:36:00.000Z,146.4
2023-03-23T14:37:00.000Z,145.3
2023-03-23T14:38:00.000Z,145.9
2023-03-23T14:39:00.000Z,145.7
2023-03-23T14:40:00.000Z,146.1
2023-03-23T14:41:00.000Z,146.1
2023-03-23T14:42:00.000Z,145.9
2023-03-23T14:43:00.000Z,145.3
2023-03-23T14:44:00.000Z,145.5
2023-03-23T14:45:00.000Z,144.9
2023-03-23T14:46:00.000Z,144.9
2023-03-23T14:47:00.000Z,145.1
2023-03-23T14:48:00.000Z,145.7
2023-03-23T14:49:00.000Z,148.0
2023-03-23T14:50:00.000Z,148.0
2023-03-23T14:51:00.000Z,147.4
2023-03-23T14:52:00.000Z,145.4
2023-03-23T14:53:00.000Z,146.0
2023-03-23T14:54:00.000Z,146.7
2023-03-23T14:55:00.000Z,146.3
2023-03-23T14:56:00.000Z,147.0
2023-03-23T14:57:00.000Z,146.0
2023-03-23T14:58:00.000Z,146.4
2023-03-23T14:59:00.000Z,145.6
2023-03-23T15:00:00.000Z,144.4
2023-03-23T15:01:00.000Z,143.1
2023-03-23T15:02:00.000Z,141.2
2023-03-23T15:03:00.000Z,142.1
2023-03-23T15:04:00.000Z,143.4
2023-03-23T15:05:00.000Z,144.9
2023-03-23T15:06:00.000Z,147.4
2023-03-23T15:07:00.000Z,146.9
2023-03-23T15:08:00.000Z,146.7
2023-03-23T15:09:00.000Z,146.3
2023-03-23T15:10:00.000Z,148.1
2023-03-23T15:11:00.000Z,147.9
2023-03-23T15:12:00.000Z,148.6
2023-03-23T15:13:00.000Z,147.2
2023-03-23T15:14:00.000Z,146.3
2023-03-23T15:15:00.000Z,149.7
2023-03-23T15:16:00.000Z,152.7
2023-03-23T15:17:00.000Z,155.7
2023-03-23T15:18:00.000Z,155.6
2023-03-23T15:19:00.000Z,155.5
2023-03-23T15:20:00.000Z,156.5
2023-03-23T15:21:00.000Z,155.6
2023-03-23T15:22:00.000Z,155.9
2023-03-23T15:23:00.000Z,156.7
2023-03-23T15:24:00.000Z,159.6
2023-03-23T15:25:00.000Z,160.8
2023-03-23T15:26:00.000Z,160.3
2023-03-23T15:27:00.000Z,160.3
2023-03-23T15:28:00.000Z,160.4
2023-03-23T15:29:00.000Z,159.8
2023-03-23T15:30:00.000Z,160.4
2023-03-23T15:31:00.000Z,160.4
2023-03-23T15:32:00.000Z,162.6
2023-03-23T15:33:00.000Z,160.9
2023-03-23T15:34:00.000Z,159.3
2023-03-23T15:35:00.000Z,158.2
2023-03-23T15:36:00.000Z,157.3
2023-03-23T15:37:00.000Z,158.0
2023-03-23T15:38:00.000Z,158.3
2023-03-23T15:39:00.000Z,159.4
2023-03-23T15:40:00.000Z,161.9
2023-03-23T15:41:00.000Z,162.8
2023-03-23T15:42:00.000Z,161.9
2023-03-23T15:43:00.000Z,160.8
2023-03-23T15:44:00.000Z,159.3
2023-03-23T15:45:00.000Z,158.5
2023-03-23T15:46:00.000Z,157.8
2023-03-23T15:47:00.000Z,158.6
2023-03-23T15:48:00.000Z,158.5
2023-03-23T15:49:00.000Z,160.3
2023-03-23T15:50:00.000Z,158.7
2023-03-23T15:51:00.000Z,158.0
2023-03-23T15:52:00.000Z,157.6
2023-03-23T15:53:00.000Z,158.0
2023-03-23T15:54:00.000Z,157.9
2023-03-23T15:55:00.000Z,158.4
2023-03-23T15:56:00.000Z,157.7
2023-03-23T15:57:00.000Z,160.1
2023-03-23T15:58:00.000Z,161.5
2023-03-23T15:59:00.000Z,161.8
2023-03-23T16:00:00.000Z,162.3
2023-03-23T16:01:00.000Z,161.6
2023-03-23T16:02:00.000Z,160.6
2023-03-23T16:03:00.000Z,160.4
2023-03-23T22:40:00.000Z,89.0
2023-03-23T22:41:00.000Z,89.4
2023-03-23T22:42:00.000Z,89.2
2023-03-23T22:43:00.000Z,87.7
2023-03-23T22:44:00.000Z,87.9
2023-03-23T22:45:00.000Z,87.3
2023-03-23T22:46:00.000Z,88.0
2023-03-23T22:47:00.000Z,88.7
2023-03-23T22:48:00.000Z,89.8
2023-03-23T22:49:00.000Z,89.2
2023-03-23T22:50:00.000Z,90.0
2023-03-23T22:51:00.000Z,89.4
2023-03-23T22:52:00.000Z,88.9
2023-03-23T22:53:00.000Z,89.8
2023-03-23T22:54:00.000Z,88.2
2023-03-23T22:55:00.000Z,88.9
2023-03-23T22:56:00.000Z,88.4
2023-03-23T22:57:00.000Z,88.0
2023-03-23T22:58:00.000Z,87.3
2023-03-23T22:59:00.000Z,87.5
2023-03-23T23:00:00.000Z,87.8
2023-03-23T23:01:00.000Z,88.0
2023-03-23T23:02:00.000Z,88.0
2023-03-23T23:03:00.000Z,87.6
2023-03-23T23:04:00.000Z,86.9
2023-03-23T23:05:00.000Z,87.4
2023-03-23T23:06:00.000Z,87.4
2023-03-23T23:07:00.000Z,89.2
2023-03-23T23:08:00.000Z,92.3
2023-03-23T23:09:00.000Z,96.2
2023-03-23T23:10:00.000Z,97.2
2023-03-23T23:11:00.000Z,94.2
2023-03-23T23:12:00.000Z,91.8
2023-03-23T23:13:00.000Z,96.1
2023-03-23T23:14:00.000Z,98.7
2023-03-23T23:15:00.000Z,98.7
2023-03-23T23:16:00.000Z,96.7
2023-03-23T23:17:00.000Z,96.8
2023-03-23T23:18:00.000Z,97.5
2023-03-23T23:19:00.000Z,96.4
2023-03-23T23:20:00.000Z,94.1
2023-03-23T23:21:00.000Z,91.8
2023-03-23T23:22:00.000Z,91.2
2023-03-23T23:23:00.000Z,92.1
2023-03-23T23:24:00.000Z,91.0
2023-03-23T23:25:00.000Z,90.3
2023-03-23T23:26:00.000Z,89.6
2023-03-23T23:27:00.000Z,91.3
2023-03-23T23:28:00.000Z,91.9
2023-03-23T23:29:00.000Z,92.1
2023-03-23T23:30:00.000Z,91.4
2023-03-23T23:31:00.000Z,92.5
2023-03-23T23:32:00.000Z,91.0
2023-03-23T23:33:00.000Z,91.1
2023-03-23T23:34:00.000Z,90.7
2023-03-23T23:35:00.000Z,90.0
2023-03-23T23:36:00.000Z,91.4
2023-03-23T23:37:00.000Z,90.8
2023-03-23T23:38:00.000Z,89.9
2023-03-23T23:39:00.000Z,89.3
2023-03-23T23:40:00.000Z,89.3
2023-03-23T23:41:00.000Z,90.0
2023-03-23T23:42:00.000Z,89.9
2023-03-23T23:43:00.000Z,88.9
2023-03-23T23:44:00.000Z,89.6
2023-03-23T23:45:00.000Z,88.0
2023-03-23T23:46:00.000Z,88.3
2023-03-23T23:47:00.000Z,89.0
2023-03-23T23:48:00.000Z,88.2
2023-03-23T23:49:00.000Z,88.9
2023-03-23T23:50:00.000Z,88.9
2023-03-23T23:51:00.000Z,90.1
2023-03-23T23:52:00.000Z,89.4
2023-03-23T23:53:00.000Z,90.0
2023-03-23T23:54:00.000Z,89.3
2023-03-23T23:55:00.000Z,88.4
2023-03-23T23:56:00.000Z,89.1
2023-03-23T23:57:00.000Z,89.1
2023-03-23T23:58:00.000Z,90.0
2023-03-23T23:59:00.000Z,89.3
